createdAt,value
2022-11-20T00:01:36.585Z,49.33
2022-11-20T00:04:05.149Z,49.30
2022-11-20T00:06:33.488Z,47.90
2022-11-20T00:09:03.481Z,52.10
2022-11-20T00:11:33.553Z,51.67
2022-11-20T00:14:03.309Z,50.17
2022-11-20T00:16:34.259Z,48.13
2022-11-20T00:19:04.106Z,50.03
2022-11-20T00:21:32.878Z,48.90
2022-11-20T00:24:01.703Z,50.03
2022-11-20T00:26:31.194Z,53.00
2022-11-20T00:29:02.990Z,50.63
2022-11-20T00:31:34.087Z,46.40
2022-11-20T00:34:03.945Z,49.43
2022-11-20T00:36:35.845Z,50.00
2022-11-20T00:39:04.667Z,47.30
2022-11-20T00:41:32.950Z,47.03
2022-11-20T00:44:01.335Z,46.20
2022-11-20T00:46:30.874Z,47.67
2022-11-20T00:48:59.769Z,46.70
2022-11-20T00:51:30.337Z,46.70
2022-11-20T00:54:02.343Z,47.10
2022-11-20T00:56:31.035Z,47.67
2022-11-20T00:59:02.200Z,49.57
2022-11-20T01:01:31.487Z,47.83
2022-11-20T01:04:01.752Z,48.93
2022-11-20T01:06:36.603Z,47.97
2022-11-20T01:09:08.743Z,50.30
2022-11-20T01:11:39.583Z,48.37
2022-11-20T01:14:10.323Z,48.27
2022-11-20T01:16:41.052Z,49.30
2022-11-20T01:19:17.374Z,51.40
2022-11-20T01:21:50.654Z,47.87
2022-11-20T01:24:21.094Z,49.43
2022-11-20T01:26:51.617Z,50.30
2022-11-20T01:29:22.435Z,51.20
2022-11-20T01:31:51.118Z,53.30
2022-11-20T01:34:21.943Z,55.27
2022-11-20T01:36:52.424Z,53.13
2022-11-20T01:39:22.645Z,56.20
2022-11-20T01:42:10.511Z,55.57
2022-11-20T01:44:52.911Z,51.47
2022-11-20T01:47:27.597Z,54.87
2022-11-20T01:50:03.377Z,52.77
2022-11-20T01:52:37.161Z,55.43
2022-11-20T01:55:10.902Z,56.07
2022-11-20T01:57:40.776Z,54.17
2022-11-20T02:00:12.703Z,55.40
2022-11-20T02:02:43.005Z,54.97
2022-11-20T02:05:18.994Z,53.50
2022-11-20T02:07:49.543Z,53.70
2022-11-20T02:10:18.476Z,55.60
2022-11-20T02:13:04.391Z,56.73
2022-11-20T02:15:34.665Z,56.93
2022-11-20T02:18:03.404Z,59.70
2022-11-20T02:20:31.835Z,62.13
2022-11-20T02:23:09.090Z,64.57
2022-11-20T02:25:40.049Z,61.40
2022-11-20T02:28:08.615Z,61.90
2022-11-20T02:30:36.958Z,61.17
2022-11-20T02:33:05.444Z,63.73
2022-11-20T02:35:45.774Z,63.47
2022-11-20T02:38:14.637Z,66.60
2022-11-20T02:40:45.485Z,64.53
2022-11-20T02:43:13.740Z,65.13
2022-11-20T02:45:42.124Z,67.00
2022-11-20T02:48:10.580Z,71.40
2022-11-20T02:50:40.590Z,69.40
2022-11-20T02:53:09.383Z,69.73
2022-11-20T02:55:38.253Z,67.07
2022-11-20T02:58:08.096Z,68.70
2022-11-20T03:00:36.615Z,70.60
2022-11-20T03:03:08.261Z,66.83
2022-11-20T03:05:36.659Z,71.13
2022-11-20T03:08:04.992Z,67.60
2022-11-20T03:10:33.468Z,71.00
2022-11-20T03:13:01.722Z,74.87
2022-11-20T03:15:31.411Z,73.97
2022-11-20T03:17:59.783Z,72.77
2022-11-20T03:20:28.095Z,79.50
2022-11-20T03:22:57.136Z,82.50
2022-11-20T03:25:25.525Z,77.93
2022-11-20T03:27:53.887Z,78.70
2022-11-20T03:30:26.247Z,76.57
2022-11-20T03:32:59.050Z,76.87
2022-11-20T03:35:27.888Z,81.47
2022-11-20T03:37:56.132Z,81.50
2022-11-20T03:40:24.663Z,83.83
2022-11-20T03:42:52.958Z,79.13
2022-11-20T03:45:23.976Z,80.27
2022-11-20T03:47:52.753Z,81.73
2022-11-20T03:50:24.651Z,81.80
2022-11-20T03:52:53.070Z,92.20
2022-11-20T03:55:21.291Z,94.70
2022-11-20T03:57:49.649Z,91.93
2022-11-20T04:00:18.274Z,89.43
2022-11-20T04:02:46.586Z,90.37
2022-11-20T04:05:15.160Z,86.03
2022-11-20T04:07:44.868Z,83.20
2022-11-20T04:10:16.220Z,85.57
2022-11-20T04:12:47.320Z,82.10
2022-11-20T04:15:15.727Z,83.47
2022-11-20T04:17:43.981Z,81.97
2022-11-20T04:20:13.085Z,80.97
2022-11-20T04:22:42.153Z,83.73
2022-11-20T04:25:12.062Z,81.03
2022-11-20T04:27:41.580Z,81.93
2022-11-20T04:30:10.762Z,78.63
2022-11-20T04:32:39.071Z,76.83
2022-11-20T04:35:07.917Z,79.00
2022-11-20T04:37:36.236Z,76.70
2022-11-20T04:40:08.170Z,77.97
2022-11-20T04:42:37.753Z,78.47
2022-11-20T04:45:06.836Z,75.47
2022-11-20T04:47:35.144Z,77.87
2022-11-20T04:50:06.647Z,77.70
2022-11-20T04:52:35.123Z,76.57
2022-11-20T04:55:03.568Z,76.60
2022-11-20T04:57:31.911Z,78.10
2022-11-20T05:00:01.640Z,76.20
2022-11-20T05:02:30.291Z,74.73
2022-11-20T05:04:58.607Z,75.10
2022-11-20T05:07:26.930Z,76.60
2022-11-20T05:09:58.291Z,72.43
2022-11-20T05:12:26.546Z,72.37
2022-11-20T05:14:55.027Z,71.77
2022-11-20T05:17:24.751Z,72.73
2022-11-20T05:19:53.351Z,74.33
2022-11-20T05:22:21.821Z,70.63
2022-11-20T05:24:51.305Z,73.30
2022-11-20T05:27:19.598Z,72.33
2022-11-20T05:29:47.896Z,74.67
2022-11-20T05:32:16.258Z,73.47
2022-11-20T05:34:45.908Z,77.53
2022-11-20T05:37:14.186Z,75.93
2022-11-20T05:39:42.604Z,76.23
2022-11-20T05:42:28.723Z,78.13
2022-11-20T05:44:57.042Z,76.63
2022-11-20T05:47:25.392Z,75.50
2022-11-20T05:49:55.237Z,76.20
2022-11-20T05:52:23.721Z,76.57
2022-11-20T05:54:51.981Z,75.07
2022-11-20T05:57:23.407Z,77.93
2022-11-20T05:59:51.751Z,76.77
2022-11-20T06:02:20.155Z,79.67
2022-11-20T06:04:48.637Z,77.10
2022-11-20T06:07:18.284Z,78.23
2022-11-20T06:09:46.877Z,73.77
2022-11-20T06:12:17.526Z,71.97
2022-11-20T06:14:45.931Z,74.10
2022-11-20T06:17:14.190Z,74.57
2022-11-20T06:19:42.552Z,76.57
2022-11-20T06:22:10.813Z,73.13
2022-11-20T06:24:40.440Z,72.47
2022-11-20T06:27:09.666Z,71.97
2022-11-20T06:29:37.971Z,72.23
2022-11-20T06:32:09.163Z,72.57
2022-11-20T06:35:14.906Z,67.60
2022-11-20T06:37:43.220Z,70.57
2022-11-20T06:40:14.147Z,68.70
2022-11-20T06:42:42.472Z,69.73
2022-11-20T06:45:11.795Z,70.40
2022-11-20T06:47:43.175Z,70.17
2022-11-20T06:50:11.718Z,69.77
2022-11-20T06:52:43.878Z,68.83
2022-11-20T06:55:13.738Z,68.77
2022-11-20T06:57:42.039Z,68.30
2022-11-20T07:00:11.602Z,68.37
2022-11-20T07:02:39.940Z,70.53
2022-11-20T07:05:08.633Z,70.00
2022-11-20T07:07:36.997Z,67.27
2022-11-20T07:10:06.012Z,65.07
2022-11-20T07:12:35.863Z,65.53
2022-11-20T07:15:04.315Z,66.77
2022-11-20T07:17:32.699Z,65.17
2022-11-20T07:20:01.024Z,65.90
2022-11-20T07:22:29.694Z,67.03
2022-11-20T07:24:57.970Z,62.40
2022-11-20T07:27:26.318Z,68.13
2022-11-20T07:29:56.333Z,76.23
2022-11-20T07:32:24.842Z,75.03
2022-11-20T07:34:53.157Z,72.13
2022-11-20T07:37:21.691Z,73.90
2022-11-20T07:39:49.995Z,71.10
2022-11-20T07:42:18.261Z,76.30
2022-11-20T07:44:46.638Z,71.70
2022-11-20T07:47:16.266Z,71.37
2022-11-20T07:49:44.619Z,73.10
2022-11-20T07:52:12.933Z,64.70
2022-11-20T07:54:41.233Z,67.77
2022-11-20T07:57:09.609Z,65.80
2022-11-20T07:59:37.905Z,60.53
2022-11-20T08:02:06.212Z,63.33
2022-11-20T08:04:35.919Z,64.77
2022-11-20T08:07:04.227Z,62.03
2022-11-20T08:09:33.640Z,59.90
2022-11-20T08:12:19.250Z,62.90
2022-11-20T08:14:47.674Z,61.90
2022-11-20T08:17:16.137Z,63.57
2022-11-20T08:19:46.136Z,65.77
2022-11-20T08:22:14.426Z,61.80
2022-11-20T08:24:42.755Z,63.80
2022-11-20T08:27:11.081Z,67.83
2022-11-20T08:29:39.489Z,63.90
2022-11-20T08:32:07.868Z,58.67
2022-11-20T08:34:36.177Z,59.30
2022-11-20T08:37:06.048Z,59.53
2022-11-20T08:39:36.608Z,62.13
2022-11-20T08:42:08.501Z,64.23
2022-11-20T08:44:36.977Z,60.33
2022-11-20T08:47:07.506Z,62.87
2022-11-20T08:49:36.214Z,71.07
2022-11-20T08:52:06.582Z,70.27
2022-11-20T08:54:34.836Z,67.33
2022-11-20T08:57:03.223Z,69.60
2022-11-20T08:59:58.688Z,69.53
2022-11-20T09:02:22.673Z,65.50
2022-11-20T09:04:51.004Z,66.43
2022-11-20T09:07:20.850Z,66.70
2022-11-20T09:10:09.717Z,65.73
2022-11-20T09:12:37.972Z,69.40
2022-11-20T09:15:07.181Z,68.30
2022-11-20T09:17:35.482Z,68.23
2022-11-20T09:20:05.244Z,68.63
2022-11-20T09:22:35.014Z,72.37
2022-11-20T09:25:03.364Z,75.83
2022-11-20T09:27:33.998Z,74.60
2022-11-20T09:30:02.347Z,69.27
2022-11-20T09:32:33.788Z,67.20
2022-11-20T09:35:02.068Z,65.87
2022-11-20T09:37:30.379Z,65.17
2022-11-20T09:40:00.071Z,64.03
2022-11-20T09:42:43.492Z,62.47
2022-11-20T09:45:20.469Z,65.00
2022-11-20T09:48:11.268Z,67.80
2022-11-20T09:50:48.922Z,66.73
2022-11-20T09:53:29.565Z,63.37
2022-11-20T09:55:59.384Z,63.07
2022-11-20T09:58:33.692Z,65.10
2022-11-20T10:01:10.302Z,58.00
2022-11-20T10:03:43.526Z,58.93
2022-11-20T10:06:18.455Z,55.23
2022-11-20T10:08:52.602Z,56.60
2022-11-20T10:11:30.077Z,58.90
2022-11-20T10:14:06.983Z,59.93
2022-11-20T10:16:44.583Z,58.17
2022-11-20T10:19:29.336Z,54.13
2022-11-20T10:22:06.961Z,54.13
2022-11-20T10:24:50.256Z,51.83
2022-11-20T10:27:41.826Z,48.27
2022-11-20T10:30:13.168Z,43.87
2022-11-20T10:32:46.799Z,31.50
2022-11-20T10:35:24.222Z,31.27
2022-11-20T10:37:57.515Z,27.57
2022-11-20T10:40:33.498Z,26.40
2022-11-20T10:43:06.982Z,26.53
2022-11-20T10:45:48.851Z,24.60
2022-11-20T10:48:22.216Z,25.20
2022-11-20T10:51:02.129Z,24.83
2022-11-20T10:53:57.395Z,22.57
2022-11-20T10:56:33.083Z,21.03
2022-11-20T10:59:55.156Z,21.67
2022-11-20T11:02:25.338Z,20.83
2022-11-20T11:04:54.951Z,20.97
2022-11-20T11:07:26.771Z,16.70
2022-11-20T11:09:58.096Z,14.80
2022-11-20T11:12:29.430Z,14.23
2022-11-20T11:14:59.818Z,16.77
2022-11-20T11:17:31.172Z,14.60
2022-11-20T11:20:08.907Z,15.07
2022-11-20T11:22:47.405Z,13.73
2022-11-20T11:25:27.619Z,12.73
2022-11-20T11:27:59.337Z,13.03
2022-11-20T11:30:31.241Z,12.23
2022-11-20T11:33:07.976Z,12.17
2022-11-20T11:35:41.698Z,10.27
2022-11-20T11:38:16.835Z,9.67
2022-11-20T11:40:45.924Z,8.80
2022-11-20T11:43:40.016Z,6.90
2022-11-20T11:46:28.631Z,5.00
2022-11-20T11:49:02.312Z,4.60
2022-11-20T11:51:36.888Z,3.83
2022-11-20T11:54:16.852Z,3.53
2022-11-20T11:56:45.921Z,3.40
2022-11-20T11:59:19.631Z,3.87
2022-11-20T12:01:55.427Z,3.27
2022-11-20T12:04:38.575Z,3.43
2022-11-20T12:07:44.367Z,3.93
2022-11-20T12:10:04.040Z,3.07
2022-11-20T12:12:38.652Z,3.30
2022-11-20T12:15:10.048Z,3.10
2022-11-20T12:17:39.694Z,2.87
2022-11-20T12:20:15.213Z,3.33
2022-11-20T12:22:52.736Z,2.50
2022-11-20T12:25:24.549Z,2.77
2022-11-20T12:28:13.659Z,2.87
2022-11-20T12:30:49.910Z,4.30
2022-11-20T12:33:44.161Z,4.87
2022-11-20T12:36:23.461Z,6.70
2022-11-20T12:39:14.071Z,6.57
2022-11-20T12:42:11.594Z,6.33
2022-11-20T12:45:13.721Z,4.37
2022-11-20T12:48:08.337Z,4.93
2022-11-20T12:51:13.470Z,4.30
2022-11-20T12:53:46.730Z,5.00
2022-11-20T12:56:25.364Z,6.40
2022-11-20T12:59:09.724Z,5.17
2022-11-20T13:01:50.689Z,5.97
2022-11-20T13:04:41.368Z,6.70
2022-11-20T13:07:15.446Z,6.93
2022-11-20T13:09:48.085Z,7.27
2022-11-20T13:12:21.982Z,6.97
2022-11-20T13:14:56.596Z,8.10
2022-11-20T13:17:33.353Z,7.43
2022-11-20T13:20:02.106Z,6.87
2022-11-20T13:22:45.655Z,6.50
2022-11-20T13:25:25.782Z,6.27
2022-11-20T13:27:54.863Z,6.70
2022-11-20T13:30:24.753Z,6.40
2022-11-20T13:32:59.852Z,6.07
2022-11-20T13:35:33.381Z,5.50
2022-11-20T13:38:05.525Z,6.03
2022-11-20T13:40:35.959Z,7.20
2022-11-20T13:43:12.815Z,6.03
2022-11-20T13:45:41.181Z,6.13
2022-11-20T13:48:22.865Z,5.60
2022-11-20T13:51:01.914Z,5.50
2022-11-20T13:53:46.432Z,5.53
2022-11-20T13:56:24.448Z,5.23
2022-11-20T13:59:04.954Z,5.07
2022-11-20T14:01:35.713Z,4.13
2022-11-20T14:04:11.360Z,4.80
2022-11-20T14:06:44.985Z,5.37
2022-11-20T14:09:26.473Z,5.23
2022-11-20T14:11:54.921Z,4.43
2022-11-20T14:14:25.158Z,3.97
2022-11-20T14:16:54.705Z,3.90
2022-11-20T14:19:31.407Z,4.20
2022-11-20T14:22:19.899Z,3.70
2022-11-20T14:24:49.913Z,5.77
2022-11-20T14:27:23.063Z,4.30
2022-11-20T14:29:55.193Z,5.17
2022-11-20T14:32:30.517Z,6.80
2022-11-20T14:35:04.687Z,6.33
2022-11-20T14:37:36.379Z,5.37
2022-11-20T14:40:27.905Z,5.77
2022-11-20T14:42:56.612Z,7.77
2022-11-20T14:45:25.894Z,9.07
2022-11-20T14:47:56.022Z,8.97
2022-11-20T14:50:27.124Z,8.57
2022-11-20T14:52:57.357Z,7.70
2022-11-20T14:55:32.366Z,8.30
2022-11-20T14:58:02.437Z,7.50
2022-11-20T15:00:31.582Z,9.33
2022-11-20T15:03:00.400Z,9.80
2022-11-20T15:05:47.074Z,7.60
2022-11-20T15:08:16.245Z,6.87
2022-11-20T15:10:50.487Z,5.60
2022-11-20T15:13:26.617Z,4.47
2022-11-20T15:15:57.075Z,4.33
2022-11-20T15:18:29.142Z,3.20
2022-11-20T15:20:59.792Z,3.10
2022-11-20T15:23:29.485Z,2.10
2022-11-20T15:25:59.701Z,2.87
2022-11-20T15:28:32.409Z,1.97
2022-11-20T15:31:00.934Z,1.50
2022-11-20T15:33:29.259Z,1.60
2022-11-20T15:35:57.536Z,2.60
2022-11-20T15:38:25.908Z,2.47
2022-11-20T15:40:54.228Z,2.93
2022-11-20T15:43:23.960Z,1.27
2022-11-20T15:45:58.771Z,3.20
2022-11-20T15:48:29.500Z,1.77
2022-11-20T15:51:00.851Z,2.90
2022-11-20T15:53:29.540Z,2.17
2022-11-20T15:55:57.846Z,3.40
2022-11-20T15:58:28.006Z,1.67
2022-11-20T16:00:56.623Z,1.90
2022-11-20T16:03:25.062Z,2.33
2022-11-20T16:05:53.372Z,1.97
2022-11-20T16:08:21.708Z,2.07
2022-11-20T16:10:50.008Z,1.90
2022-11-20T16:13:36.772Z,1.90
2022-11-20T16:16:10.183Z,2.97
2022-11-20T16:18:38.615Z,1.60
2022-11-20T16:21:06.914Z,1.80
2022-11-20T16:23:37.510Z,2.40
2022-11-20T16:26:12.363Z,3.00
2022-11-20T16:28:43.358Z,2.07
2022-11-20T16:31:14.569Z,1.80
2022-11-20T16:33:43.637Z,0.90
2022-11-20T16:36:13.148Z,1.10
2022-11-20T16:38:42.002Z,1.40
2022-11-20T16:41:14.564Z,1.30
2022-11-20T16:43:50.067Z,1.57
2022-11-20T16:46:24.266Z,1.60
2022-11-20T16:48:55.951Z,1.80
2022-11-20T16:51:25.516Z,1.53
2022-11-20T16:53:55.911Z,2.57
2022-11-20T16:56:26.618Z,2.17
2022-11-20T16:58:57.128Z,2.60
2022-11-20T17:01:28.889Z,1.70
2022-11-20T17:03:59.302Z,1.73
2022-11-20T17:06:30.762Z,2.20
2022-11-20T17:08:59.751Z,1.93
2022-11-20T17:11:28.947Z,2.93
2022-11-20T17:13:57.642Z,1.67
2022-11-20T17:16:27.263Z,1.47
2022-11-20T17:19:01.246Z,2.00
2022-11-20T17:21:30.934Z,2.13
2022-11-20T17:24:02.392Z,2.03
2022-11-20T17:26:31.084Z,1.30
2022-11-20T17:29:03.329Z,1.83
2022-11-20T17:31:34.455Z,1.97
2022-11-20T17:34:03.262Z,2.73
2022-11-20T17:36:32.281Z,4.13
2022-11-20T17:39:00.889Z,3.67
2022-11-20T17:41:30.890Z,2.80
2022-11-20T17:44:01.088Z,2.80
2022-11-20T17:46:32.806Z,2.63
2022-11-20T17:49:03.020Z,2.87
2022-11-20T17:51:33.017Z,3.27
2022-11-20T17:54:03.074Z,2.60
2022-11-20T17:56:50.444Z,3.57
2022-11-20T17:59:19.787Z,2.73
2022-11-20T18:01:48.611Z,4.40
2022-11-20T18:04:18.540Z,2.93
2022-11-20T18:06:47.056Z,3.37
2022-11-20T18:09:15.539Z,2.80
2022-11-20T18:11:45.502Z,2.37
2022-11-20T18:14:29.313Z,2.87
2022-11-20T18:16:59.568Z,3.03
2022-11-20T18:19:36.520Z,2.23
2022-11-20T18:22:09.073Z,1.77
2022-11-20T18:24:39.402Z,2.63
2022-11-20T18:27:09.738Z,2.57
2022-11-20T18:29:38.069Z,3.10
2022-11-20T18:32:06.939Z,3.23
2022-11-20T18:34:36.885Z,4.70
2022-11-20T18:37:06.315Z,5.00
2022-11-20T18:39:34.846Z,6.17
2022-11-20T18:42:21.029Z,6.73
2022-11-20T18:44:52.278Z,6.50
2022-11-20T18:47:22.231Z,7.93
2022-11-20T18:49:53.657Z,8.57
2022-11-20T18:52:24.291Z,7.90
2022-11-20T18:54:53.177Z,10.23
2022-11-20T18:57:23.504Z,8.70
2022-11-20T18:59:53.657Z,9.10
2022-11-20T19:02:22.810Z,9.73
2022-11-20T19:04:52.821Z,8.10
2022-11-20T19:07:21.165Z,10.03
2022-11-20T19:09:52.533Z,7.90
2022-11-20T19:12:23.184Z,8.30
2022-11-20T19:14:52.596Z,7.80
2022-11-20T19:17:21.113Z,8.23
2022-11-20T19:19:49.782Z,8.50
2022-11-20T19:22:19.772Z,9.93
2022-11-20T19:24:48.322Z,10.27
2022-11-20T19:27:16.790Z,8.30
2022-11-20T19:29:45.055Z,9.83
2022-11-20T19:32:13.518Z,9.83
2022-11-20T19:34:41.852Z,9.60
2022-11-20T19:37:13.268Z,8.70
2022-11-20T19:39:43.058Z,8.47
2022-11-20T19:42:11.313Z,7.57
2022-11-20T19:44:39.661Z,10.00
2022-11-20T19:47:14.075Z,8.43
2022-11-20T19:49:42.949Z,8.83
2022-11-20T19:52:11.868Z,9.60
2022-11-20T19:54:40.174Z,9.03
2022-11-20T19:57:09.866Z,8.53
2022-11-20T19:59:38.324Z,8.83
2022-11-20T20:02:07.121Z,8.20
2022-11-20T20:04:38.406Z,8.73
2022-11-20T20:07:07.354Z,9.30
2022-11-20T20:09:35.752Z,19.30
2022-11-20T20:12:04.201Z,11.13
2022-11-20T20:14:34.898Z,8.43
2022-11-20T20:17:03.481Z,9.90
2022-11-20T20:19:34.146Z,13.27
2022-11-20T20:22:02.497Z,10.60
2022-11-20T20:24:30.807Z,10.10
2022-11-20T20:26:59.120Z,10.83
2022-11-20T20:29:27.521Z,10.03
2022-11-20T20:31:57.192Z,8.67
2022-11-20T20:34:29.812Z,9.10
2022-11-20T20:37:00.928Z,8.47
2022-11-20T20:39:29.359Z,10.30
2022-11-20T20:41:57.710Z,10.07
2022-11-20T20:44:43.404Z,10.23
2022-11-20T20:47:13.144Z,10.50
2022-11-20T20:49:43.276Z,9.50
2022-11-20T20:52:11.701Z,8.30
2022-11-20T20:54:41.994Z,8.60
2022-11-20T20:57:10.282Z,15.03
2022-11-20T20:59:40.970Z,10.27
2022-11-20T21:02:10.501Z,9.17
2022-11-20T21:04:40.255Z,10.47
2022-11-20T21:07:08.758Z,11.00
2022-11-20T21:09:37.114Z,10.67
2022-11-20T21:12:05.786Z,10.00
2022-11-20T21:14:34.316Z,9.37
2022-11-20T21:17:02.816Z,7.33
2022-11-20T21:19:31.140Z,7.53
2022-11-20T21:21:59.919Z,9.27
2022-11-20T21:24:28.766Z,9.00
2022-11-20T21:26:58.267Z,7.87
2022-11-20T21:29:29.100Z,8.40
2022-11-20T21:31:59.854Z,8.53
2022-11-20T21:34:28.201Z,8.37
2022-11-20T21:36:56.635Z,7.13
2022-11-20T21:39:26.366Z,8.07
2022-11-20T21:41:54.743Z,6.63
2022-11-20T21:44:41.590Z,5.90
2022-11-20T21:47:10.319Z,5.93
2022-11-20T21:49:40.632Z,6.00
2022-11-20T21:52:08.897Z,6.37
2022-11-20T21:54:38.547Z,6.10
2022-11-20T21:57:06.893Z,7.37
2022-11-20T21:59:37.684Z,7.90
2022-11-20T22:02:06.273Z,5.83
2022-11-20T22:04:34.723Z,6.30
2022-11-20T22:07:03.123Z,5.03
2022-11-20T22:09:31.439Z,8.73
2022-11-20T22:12:01.095Z,11.83
2022-11-20T22:14:28.721Z,12.30
2022-11-20T22:16:57.236Z,7.07
2022-11-20T22:19:25.652Z,16.50
2022-11-20T22:21:54.097Z,22.47
2022-11-20T22:24:23.814Z,18.17
2022-11-20T22:26:52.402Z,24.10
2022-11-20T22:29:22.619Z,19.67
2022-11-20T22:31:55.082Z,6.60
2022-11-20T22:34:23.577Z,5.00
2022-11-20T22:36:52.153Z,3.40
2022-11-20T22:39:22.806Z,3.57
2022-11-20T22:41:51.133Z,2.70
2022-11-20T22:44:19.436Z,2.93
2022-11-20T22:46:49.071Z,1.67
2022-11-20T22:49:17.346Z,1.33
2022-11-20T22:51:45.640Z,1.80
2022-11-20T22:54:14.046Z,1.87
2022-11-20T22:56:42.819Z,2.40
2022-11-20T22:59:11.465Z,1.60
2022-11-20T23:01:40.160Z,0.80
2022-11-20T23:04:12.222Z,1.67
2022-11-20T23:06:40.553Z,1.43
2022-11-20T23:09:11.537Z,0.90
2022-11-20T23:11:39.988Z,1.10
2022-11-20T23:14:13.291Z,1.70
2022-11-20T23:16:42.311Z,1.53
2022-11-20T23:19:14.571Z,1.20
2022-11-20T23:21:44.340Z,1.43
2022-11-20T23:24:12.971Z,1.20
2022-11-20T23:26:42.010Z,1.10
2022-11-20T23:29:10.557Z,1.20
2022-11-20T23:31:38.849Z,0.50
2022-11-20T23:34:07.236Z,0.50
2022-11-20T23:36:36.862Z,0.80
2022-11-20T23:39:05.302Z,0.77
2022-11-20T23:41:33.584Z,0.40
2022-11-20T23:44:01.858Z,0.30
2022-11-20T23:46:30.334Z,0.40
2022-11-20T23:48:58.590Z,0.40
2022-11-20T23:51:26.983Z,0.77
2022-11-20T23:54:00.481Z,0.70
2022-11-20T23:56:31.717Z,0.50
2022-11-20T23:59:00.245Z,0.30
